Time;durP1;ratioP1;P1;durP2;ratioP2;P2;SDS_P1;SDS_P2;PMS_P1;PMS_P2;Temp;Humidity;BMP_temperature;BMP_pressure;BME280_temperature;BME280_humidity;BME280_pressure;Samples;Min_cycle;Max_cycle;Signal;HPM_P1;HPM_P2
2023/05/03 00:01:54;;;;;;;19.73;15.52;;;;;;;;;;5067014;28;20057;-76
2023/05/03 00:04:22;;;;;;;19.80;15.23;;;410.50;2355.20;;;;;;5076142;28;20025;-76
2023/05/03 00:07:10;;;;;;;19.55;15.77;;;410.20;2355.20;;;;;;5056878;28;20029;-75
2023/05/03 00:09:37;;;;;;;21.08;16.05;;;410.20;2355.20;;;;;;5023981;22;20029;-76
2023/05/03 00:12:04;;;;;;;17.95;14.77;;;410.20;2355.20;;;;;;5065548;28;20056;-76
2023/05/03 00:14:30;;;;;;;20.42;15.32;;;410.20;2355.20;;;;;;5072061;28;20018;-75
2023/05/03 00:20:20;;;;;;;18.08;15.15;;;409.80;2355.20;;;;;;5076363;28;20080;-75
2023/05/03 00:22:46;;;;;;;20.65;15.77;;;;;;;;;;5072588;28;20045;-77
2023/05/03 00:25:12;;;;;;;17.17;14.80;;;;;;;;;;5075569;28;20064;-76
2023/05/03 00:27:38;;;;;;;18.60;14.65;;;;;;;;;;5076712;28;20059;-76
2023/05/03 00:30:05;;;;;;;18.73;15.13;;;;;;;;;;5063008;28;20041;-75
2023/05/03 00:35:44;;;;;;;17.42;14.68;;;;;;;;;;5062704;28;20089;-76
2023/05/03 00:38:13;;;;;;;20.83;14.90;;;;;;;;;;5116219;22;20054;-76
2023/05/03 00:40:41;;;;;;;18.20;15.20;;;;;;;;;;5076507;28;20077;-78
2023/05/03 00:43:10;;;;;;;19.35;15.40;;;;;;;;;;5060132;28;20037;-77
2023/05/03 00:45:36;;;;;;;18.08;15.38;;;;;;;;;;5062356;28;20024;-76
2023/05/03 00:48:24;;;;;;;18.60;15.23;;;;;;;;;;5040161;28;20093;-76
2023/05/03 00:50:50;;;;;;;19.70;16.10;;;;;;;;;;5050367;28;20044;-78
2023/05/03 00:53:16;;;;;;;22.08;16.17;;;;;;;;;;5061648;28;20542;-77
2023/05/03 00:55:48;;;;;;;21.90;16.63;;;;;;;;;;5056575;28;20017;-77
2023/05/03 00:58:25;;;;;;;21.05;16.52;;;;;;;;;;5049418;28;20017;-80
2023/05/03 01:01:00;;;;;;;20.00;16.70;;;;;;;;;;5072082;28;20101;-77
2023/05/03 01:03:27;;;;;;;22.42;17.20;;;;;;;;;;5059127;28;20052;-77
2023/05/03 01:08:35;;;;;;;21.33;17.38;;;;;;;;;;5255262;22;20079;-76
2023/05/03 01:20:33;;;;;;;23.35;18.85;;;;;;;;;;5040602;28;20096;-75
2023/05/03 01:22:59;;;;;;;22.25;18.20;;;;;;;;;;5146290;23;20061;-76
2023/05/03 01:25:26;;;;;;;25.13;18.15;;;;;;;;;;5053408;28;20113;-76
2023/05/03 01:27:52;;;;;;;23.35;17.77;;;;;;;;;;5054134;28;20053;-75
2023/05/03 01:30:22;;;;;;;21.15;17.70;;;;;;;;;;5060626;28;20093;-75
2023/05/03 01:33:06;;;;;;;23.65;17.52;;;;;;;;;;5053227;28;20080;-76
2023/05/03 01:35:48;;;;;;;;;;;;;;;;;;5065330;28;20113;-76
2023/05/03 01:38:26;;;;;;;25.25;18.45;;;;;;;;;;5055274;28;19905;-75
2023/05/03 01:41:05;;;;;;;23.77;19.10;;;;;;;;;;5059060;28;20033;-76
2023/05/03 01:43:51;;;;;;;24.65;20.30;;;;;;;;;;5079889;28;20028;-84
2023/05/03 01:51:37;;;;;;;26.98;18.70;;;384.40;2329.60;;;;;;5230962;22;20087;-78
2023/05/03 01:54:13;;;;;;;27.30;19.33;;;384.30;2329.60;;;;;;5133553;22;20037;-82
2023/05/03 01:56:39;;;;;;;26.05;19.48;;;384.30;2329.60;;;;;;5036372;28;20129;-81
2023/05/03 01:59:04;;;;;;;26.10;19.08;;;384.30;2329.60;;;;;;5045730;28;20025;-86
2023/05/03 02:07:49;;;;;;;28.40;20.73;;;384.30;2329.60;;;;;;2312752;22;20036;-74
2023/05/03 02:10:18;;;;;;;26.02;20.10;;;;;;;;;;5001519;28;20038;-76
2023/05/03 02:27:51;;;;;;;32.42;23.60;;;359.30;2329.60;;;;;;4642878;23;20055;-84
2023/05/03 02:30:19;;;;;;;33.50;25.05;;;359.30;2329.60;;;;;;5019920;28;20034;-80
2023/05/03 02:33:24;;;;;;;31.63;22.92;;;359.20;2329.60;;;;;;5010704;28;20030;-79
2023/05/03 02:38:27;;;;;;;33.75;24.27;;;359.20;2329.60;;;;;;5146668;23;20005;-77
2023/05/03 02:40:58;;;;;;;33.15;24.50;;;359.20;2329.60;;;;;;4980116;28;20054;-76
2023/05/03 02:51:14;;;;;;;39.03;25.50;;;359.10;2329.60;;;;;;3224612;26;20407;-75
2023/05/03 03:01:26;;;;;;;36.13;25.58;;;359.10;2329.60;;;;;;5062723;22;20054;-77
2023/05/03 03:09:54;;;;;;;40.25;25.88;;;384.40;2329.60;;;;;;5060898;23;20072;-76
2023/05/03 03:12:24;;;;;;;39.72;26.88;;;359.00;2329.60;;;;;;5026081;28;20785;-78
2023/05/03 03:14:55;;;;;;;39.92;27.20;;;359.00;2329.60;;;;;;5037017;28;20028;-78
2023/05/03 03:22:34;;;;;;;43.08;27.55;;;359.00;2329.60;;;;;;5022667;23;20064;-77
2023/05/03 03:32:54;;;;;;;38.30;26.38;;;359.00;2329.60;;;;;;4854285;23;20062;-76
2023/05/03 03:35:21;;;;;;;44.28;28.35;;;359.00;2329.60;;;;;;5275474;23;20050;-76
2023/05/03 03:37:50;;;;;;;44.72;27.85;;;359.00;2329.60;;;;;;5320479;23;20035;-76
2023/05/03 03:45:30;;;;;;;40.78;26.98;;;359.00;2329.60;;;;;;5512748;23;20045;-77
2023/05/03 03:50:34;;;;;;;40.67;26.95;;;359.00;2329.60;;;;;;5097540;23;20085;-76
2023/05/03 03:55:37;;;;;;;41.50;27.58;;;359.00;2329.60;;;;;;5819920;23;20053;-79
2023/05/03 03:58:04;;;;;;;40.70;27.85;;;359.00;2329.60;;;;;;5032824;28;20029;-76
2023/05/03 04:00:30;;;;;;;42.63;27.75;;;359.00;2329.60;;;;;;5026659;28;20125;-77
2023/05/03 04:02:56;;;;;;;38.53;26.50;;;359.00;2329.60;;;;;;5047932;28;20017;-76
2023/05/03 04:05:22;;;;;;;41.88;27.48;;;359.10;2329.60;;;;;;4997006;28;20069;-76
2023/05/03 04:07:48;;;;;;;41.80;27.55;;;359.10;2329.60;;;;;;5022704;28;20069;-77
2023/05/03 04:10:14;;;;;;;36.58;26.13;;;359.10;2329.60;;;;;;5006960;28;20030;-77
2023/05/03 04:12:39;;;;;;;37.33;25.38;;;359.20;2329.60;;;;;;5019663;28;20030;-77
2023/05/03 04:15:06;;;;;;;36.85;25.15;;;359.20;2329.60;;;;;;5010764;28;20029;-76
2023/05/03 04:17:33;;;;;;;35.60;24.17;;;359.20;2329.60;;;;;;5049819;22;20062;-77
2023/05/03 04:23:22;;;;;;;30.50;21.23;;;359.20;2329.60;;;;;;5020848;28;20049;-76
2023/05/03 04:25:48;;;;;;;30.10;20.63;;;359.20;2329.60;;;;;;5033952;28;20053;-77
2023/05/03 04:28:14;;;;;;;30.40;20.60;;;359.20;2329.60;;;;;;5015828;28;20045;-77
2023/05/03 04:30:43;;;;;;;30.95;19.95;;;359.20;2329.60;;;;;;5015953;28;20044;-77
2023/05/03 04:37:23;;;;;;;25.23;17.90;;;359.30;2329.60;;;;;;5018134;28;20045;-77
2023/05/03 04:39:49;;;;;;;24.90;17.48;;;384.00;2329.60;;;;;;5020182;28;20034;-76
2023/05/03 04:42:14;;;;;;;22.30;16.23;;;384.10;2329.60;;;;;;5017737;28;20038;-77
2023/05/03 04:44:46;;;;;;;21.52;16.65;;;384.10;2329.60;;;;;;5034920;28;20034;-76
2023/05/03 04:47:12;;;;;;;23.02;15.70;;;384.20;2329.60;;;;;;5033498;23;20062;-76
2023/05/03 04:49:38;;;;;;;22.38;14.77;;;384.20;2329.60;;;;;;5015199;28;20037;-76
2023/05/03 04:52:06;;;;;;;19.88;14.95;;;384.20;2329.60;;;;;;5106210;23;20057;-77
2023/05/03 04:54:34;;;;;;;17.40;13.93;;;384.30;2329.60;;;;;;5014554;22;20050;-77
2023/05/03 04:59:35;;;;;;;16.38;12.27;;;384.50;2329.60;;;;;;4804648;26;20055;-77
2023/05/03 05:02:01;;;;;;;16.13;10.90;;;384.50;2329.60;;;;;;4975202;28;20067;-76
2023/05/03 05:04:35;;;;;;;11.70;9.38;;;384.60;2329.60;;;;;;5264916;23;20044;-77
2023/05/03 05:07:21;;;;;;;14.65;9.32;;;384.70;2329.60;;;;;;5194869;23;20046;-77
2023/05/03 05:09:47;;;;;;;13.27;9.07;;;409.70;2355.20;;;;;;5108361;22;20106;-77
2023/05/03 05:12:17;;;;;;;12.07;8.90;;;384.90;2329.60;;;;;;5018521;23;20031;-76
2023/05/03 05:14:45;;;;;;;12.93;8.38;;;384.90;2329.60;;;;;;5087711;22;20046;-76
2023/05/03 05:20:16;;;;;;;10.63;7.88;;;409.80;2355.20;;;;;;5070822;23;20101;-79
2023/05/03 05:26:05;;;;;;;12.45;6.38;;;409.90;2355.20;;;;;;5128682;23;20069;-78
2023/05/03 05:28:31;;;;;;;12.27;6.47;;;410.00;2355.20;;;;;;4997159;28;20034;-76
2023/05/03 05:30:57;;;;;;;9.30;5.50;;;410.10;2355.20;;;;;;5003380;28;20035;-79
2023/05/03 05:40:35;;;;;;;9.10;4.72;;;410.30;2355.20;;;;;;5013401;28;20135;-76
2023/05/03 05:43:00;;;;;;;8.35;4.95;;;410.50;2355.20;;;;;;4993472;28;20014;-77
2023/05/03 05:45:26;;;;;;;10.32;4.97;;;435.20;2355.20;;;;;;5010358;28;20057;-76
2023/05/03 05:47:52;;;;;;;7.85;4.88;;;435.20;2355.20;;;;;;5014545;28;20034;-76
2023/05/03 05:50:18;;;;;;;9.35;4.82;;;435.40;2355.20;;;;;;5013393;28;20034;-76
2023/05/03 05:52:44;;;;;;;8.00;4.78;;;435.50;2355.20;;;;;;5012702;28;20018;-77
2023/05/03 05:55:13;;;;;;;10.43;4.68;;;435.60;2355.20;;;;;;5017973;28;20035;-77
2023/05/03 05:57:39;;;;;;;9.20;4.40;;;435.60;2355.20;;;;;;5015057;28;20023;-77
2023/05/03 06:00:13;;;;;;;7.72;4.10;;;435.70;2355.20;;;;;;5006542;28;20045;-78
2023/05/03 06:02:43;;;;;;;6.57;3.80;;;435.70;2355.20;;;;;;4990671;28;20031;-77
2023/05/03 06:08:48;;;;;;;9.45;3.78;;;435.50;2355.20;;;;;;5014008;28;20061;-78
2023/05/03 06:11:14;;;;;;;7.60;4.25;;;435.70;2355.20;;;;;;4997348;28;20038;-76
2023/05/03 06:13:40;;;;;;;7.07;4.28;;;435.80;2355.20;;;;;;5005114;28;20072;-77
2023/05/03 06:16:06;;;;;;;6.35;4.10;;;435.90;2355.20;;;;;;5002924;28;20031;-77
2023/05/03 06:18:32;;;;;;;8.02;3.70;;;435.80;2355.20;;;;;;5009699;28;20034;-76
2023/05/03 06:20:57;;;;;;;8.60;3.60;;;435.90;2355.20;;;;;;4990260;28;20045;-76
2023/05/03 06:23:23;;;;;;;12.90;3.60;;;435.70;2355.20;;;;;;5004367;28;20019;-77
2023/05/03 06:25:49;;;;;;;6.15;3.78;;;435.60;2355.20;;;;;;5007879;28;20027;-77
2023/05/03 06:28:14;;;;;;;6.75;3.83;;;435.50;2355.20;;;;;;5015263;28;20041;-77
2023/05/03 06:30:40;;;;;;;10.40;3.75;;;435.70;2355.20;;;;;;5003177;28;20058;-77
2023/05/03 06:33:06;;;;;;;7.45;4.05;;;435.90;2355.20;;;;;;5008538;28;20081;-76
2023/05/03 06:35:32;;;;;;;9.70;4.30;;;435.90;2355.20;;;;;;5003716;28;20057;-77
2023/05/03 06:37:58;;;;;;;8.02;3.47;;;436.00;2355.20;;;;;;4995201;28;20042;-77
2023/05/03 06:40:25;;;;;;;8.18;3.60;;;460.90;2380.80;;;;;;5001506;28;20042;-77
2023/05/03 06:42:50;;;;;;;6.93;3.90;;;461.10;2380.80;;;;;;4992315;28;20144;-77
2023/05/03 06:45:17;;;;;;;9.68;3.60;;;;;;;;;;4983516;28;20034;-77
2023/05/03 06:47:43;;;;;;;9.00;3.50;;;486.80;2380.80;;;;;;5004563;28;20035;-76
2023/05/03 06:50:34;;;;;;;7.30;3.65;;;;;;;;;;5013487;28;20073;-77
2023/05/03 06:53:00;;;;;;;11.60;4.00;;;487.00;2329.60;;;;;;5015411;28;20042;-77
2023/05/03 06:55:26;;;;;;;6.13;3.22;;;486.90;2252.80;;;;;;5014393;28;20042;-80
2023/05/03 06:57:52;;;;;;;10.18;3.60;;;487.20;2380.80;;;;;;5011625;28;20486;-78
2023/05/03 07:00:20;;;;;;;6.97;3.50;;;;;;;;;;5007474;28;20121;-81
2023/05/03 07:02:46;;;;;;;6.78;3.00;;;;;;;;;;4999926;28;20043;-90
2023/05/03 07:05:12;;;;;;;7.40;2.97;;;;;;;;;;4994504;28;20065;-93
2023/05/03 07:07:38;;;;;;;6.40;2.97;;;;;;;;;;4975617;28;20037;-90
2023/05/03 07:10:05;;;;;;;9.00;3.15;;;;;;;;;;4973258;28;20041;-90
2023/05/03 07:12:31;;;;;;;5.97;2.78;;;;;;;;;;4989634;28;20065;-92
2023/05/03 07:14:57;;;;;;;6.72;3.13;;;512.60;1945.60;;;;;;4975260;28;20086;-94
2023/05/03 07:17:24;;;;;;;5.32;2.95;;;512.50;1971.20;;;;;;4991985;28;20054;-92
2023/05/03 07:22:53;;;;;;;9.65;3.28;;;;;;;;;;4992045;28;20081;-89
2023/05/03 07:25:19;;;;;;;8.93;2.90;;;;;;;;;;4982557;28;20027;-88
2023/05/03 07:27:51;;;;;;;5.18;3.03;;;;;;;;;;4979200;28;20058;-84
2023/05/03 07:30:17;;;;;;;7.03;2.90;;;;;;;;;;4990633;28;20073;-80
2023/05/03 07:32:43;;;;;;;6.15;2.80;;;;;;;;;;4991117;28;20563;-80
2023/05/03 07:38:38;;;;;;;5.28;3.13;;;;;;;;;;4991688;28;20581;-89
2023/05/03 07:41:05;;;;;;;5.65;3.15;;;;;;;;;;4973751;28;20061;-80
2023/05/03 07:43:31;;;;;;;7.03;3.20;;;;;;;;;;4967886;28;20038;-85
2023/05/03 07:45:57;;;;;;;7.55;3.50;;;;;;;;;;4994965;28;20038;-90
2023/05/03 07:48:23;;;;;;;7.43;3.10;;;;;;;;;;4994724;28;20026;-87
2023/05/03 07:50:49;;;;;;;6.50;3.20;;;;;;;;;;4995089;28;20104;-80
2023/05/03 07:53:16;;;;;;;5.22;3.00;;;563.20;1689.60;;;;;;4996030;28;20053;-90
2023/05/03 07:55:42;;;;;;;6.75;3.20;;;;;;;;;;4978887;28;20038;-94
2023/05/03 07:58:08;;;;;;;8.20;3.50;;;;;;;;;;4995593;28;20524;-94
2023/05/03 08:00:34;;;;;;;7.53;3.67;;;;;;;;;;4991912;28;20050;-92
2023/05/03 08:03:02;;;;;;;5.68;3.50;;;;;;;;;;4995710;28;20477;-87
2023/05/03 08:05:29;;;;;;;7.10;3.50;;;;;;;;;;4969781;28;20041;-84
2023/05/03 08:07:55;;;;;;;7.65;3.78;;;;;;;;;;4990950;28;20030;-87
2023/05/03 08:10:21;;;;;;;6.43;3.40;;;563.60;1664.00;;;;;;4995135;28;20038;-85
2023/05/03 08:12:47;;;;;;;5.38;3.33;;;563.30;1689.60;;;;;;4977477;28;20045;-87
2023/05/03 08:15:13;;;;;;;6.95;3.40;;;;;;;;;;4977049;28;20026;-80
2023/05/03 08:17:43;;;;;;;7.93;3.72;;;563.60;1689.60;;;;;;4995568;28;20039;-80
2023/05/03 08:20:10;;;;;;;6.22;3.60;;;;;;;;;;4963523;28;20074;-81
2023/05/03 08:22:36;;;;;;;6.38;3.58;;;;;;;;;;4989149;28;20097;-82
2023/05/03 08:25:03;;;;;;;4.80;3.10;;;;;;;;;;4977475;28;20043;-85
2023/05/03 08:27:30;;;;;;;6.35;3.42;;;;;;;;;;4986586;28;20046;-85
2023/05/03 08:29:56;;;;;;;5.50;3.70;;;;;;;;;;4976921;28;20121;-84
2023/05/03 08:32:22;;;;;;;6.68;3.50;;;588.90;1638.40;;;;;;4990170;28;20069;-84
2023/05/03 08:34:49;;;;;;;5.57;3.42;;;588.90;1638.40;;;;;;4978798;28;20034;-82
2023/05/03 08:37:15;;;;;;;7.10;3.53;;;564.00;1612.80;;;;;;4967601;28;20102;-77
2023/05/03 08:39:41;;;;;;;6.45;3.70;;;564.00;1612.80;;;;;;4975759;28;20110;-79
2023/05/03 08:42:07;;;;;;;8.43;3.25;;;564.00;1638.40;;;;;;4977174;28;20046;-82
2023/05/03 08:44:36;;;;;;;6.38;3.47;;;564.00;1587.20;;;;;;4975776;28;20038;-82
2023/05/03 08:47:04;;;;;;;8.25;3.38;;;564.00;1587.20;;;;;;4977566;28;20558;-84
2023/05/03 08:49:34;;;;;;;7.70;3.42;;;;;;;;;;4988582;28;20065;-82
2023/05/03 08:52:00;;;;;;;7.45;3.78;;;;;;;;;;4978283;28;20066;-83
2023/05/03 08:54:26;;;;;;;4.90;3.47;;;;;;;;;;4995188;28;20038;-83
2023/05/03 08:56:52;;;;;;;6.03;3.50;;;;;;;;;;4976353;28;20030;-78
2023/05/03 08:59:18;;;;;;;7.75;3.65;;;;;;;;;;4994985;28;20121;-83
2023/05/03 09:01:47;;;;;;;7.25;3.53;;;;;;;;;;4980935;28;20428;-82
2023/05/03 09:04:13;;;;;;;5.95;3.67;;;614.50;1561.60;;;;;;4976075;28;20047;-79
2023/05/03 09:06:40;;;;;;;7.40;3.60;;;589.70;1587.20;;;;;;4986238;28;20046;-81
2023/05/03 09:09:07;;;;;;;7.65;3.72;;;588.80;1612.80;;;;;;4977466;28;20031;-84
2023/05/03 09:11:34;;;;;;;5.95;3.50;;;564.10;1664.00;;;;;;4995533;28;20034;-84
2023/05/03 09:14:10;;;;;;;4.90;3.75;;;563.70;1638.40;;;;;;4977921;28;20035;-85
2023/05/03 09:16:37;;;;;;;5.47;3.78;;;;;;;;;;4994472;28;20038;-87
2023/05/03 09:19:08;;;;;;;5.65;3.83;;;;;;;;;;4971740;28;20026;-84
2023/05/03 09:21:35;;;;;;;6.05;3.72;;;588.80;1664.00;;;;;;4993158;28;20073;-82
2023/05/03 09:24:02;;;;;;;8.02;4.18;;;588.80;1920.00;;;;;;4991558;28;20030;-79
2023/05/03 09:26:35;;;;;;;7.22;4.13;;;;;;;;;;4995325;28;20381;-81
2023/05/03 09:29:02;;;;;;;6.72;4.07;;;563.70;1715.20;;;;;;4995319;28;20125;-88
2023/05/03 09:31:32;;;;;;;8.50;4.55;;;563.50;1740.80;;;;;;4982547;28;20090;-83
2023/05/03 09:33:58;;;;;;;8.13;4.68;;;563.40;1843.20;;;;;;4958629;28;20027;-88
2023/05/03 09:36:24;;;;;;;7.28;4.38;;;563.20;1843.20;;;;;;4975592;28;20477;-87
2023/05/03 09:38:51;;;;;;;10.85;4.40;;;563.30;1766.40;;;;;;4975951;28;20031;-86
2023/05/03 09:41:30;;;;;;;5.95;4.20;;;538.50;1766.40;;;;;;4956977;28;20047;-84
2023/05/03 09:44:01;;;;;;;8.68;4.50;;;538.10;1843.20;;;;;;4993297;28;20154;-80
2023/05/03 09:46:29;;;;;;;6.13;4.47;;;538.10;1868.80;;;;;;4995487;28;20484;-90
2023/05/03 09:48:56;;;;;;;8.93;4.15;;;537.90;1920.00;;;;;;4991116;28;20041;-89
2023/05/03 09:51:23;;;;;;;5.80;4.10;;;537.90;1868.80;;;;;;4992622;28;20461;-80
2023/05/03 09:53:49;;;;;;;4.50;3.75;;;537.70;1868.80;;;;;;4983366;28;20085;-78
2023/05/03 09:56:16;;;;;;;6.32;3.45;;;537.60;1843.20;;;;;;4976523;28;20481;-90
2023/05/03 09:58:45;;;;;;;5.38;3.55;;;537.70;1843.20;;;;;;4994332;28;20562;-90
2023/05/03 10:01:13;;;;;;;5.47;3.42;;;537.80;1792.00;;;;;;4992734;28;20392;-90
2023/05/03 10:03:39;;;;;;;5.03;3.63;;;537.80;1792.00;;;;;;4995303;28;20468;-88
2023/05/03 10:06:15;;;;;;;6.88;3.22;;;538.00;1792.00;;;;;;4994259;28;20057;-83
2023/05/03 10:08:48;;;;;;;6.55;3.60;;;538.10;1715.20;;;;;;4973860;28;20069;-85
2023/05/03 10:11:16;;;;;;;6.25;3.75;;;538.20;1740.80;;;;;;4972950;28;20046;-81
2023/05/03 10:13:42;;;;;;;5.30;3.78;;;538.00;1689.60;;;;;;4973714;28;20043;-78
2023/05/03 10:16:12;;;;;;;6.70;4.07;;;538.00;1715.20;;;;;;4972356;28;20157;-82
2023/05/03 10:18:45;;;;;;;9.00;3.78;;;;;;;;;;4990077;28;20030;-78
2023/05/03 10:21:48;;;;;;;6.20;3.50;;;563.30;1715.20;;;;;;4986393;28;20045;-80
2023/05/03 10:24:15;;;;;;;5.13;3.38;;;;;;;;;;4971337;28;20026;-80
2023/05/03 10:26:46;;;;;;;6.20;3.83;;;563.70;1715.20;;;;;;4973526;28;20037;-77
2023/05/03 10:29:34;;;;;;;7.18;4.97;;;563.60;1638.40;;;;;;4991872;28;20097;-77
2023/05/03 10:32:04;;;;;;;6.57;4.10;;;563.20;1689.60;;;;;;4978856;28;20104;-76
2023/05/03 10:34:32;;;;;;;5.47;3.13;;;538.40;1638.40;;;;;;4991385;28;20039;-76
2023/05/03 10:37:02;;;;;;;4.50;3.15;;;538.40;1638.40;;;;;;4972990;28;20037;-76
2023/05/03 10:39:30;;;;;;;7.18;3.30;;;538.40;1689.60;;;;;;4991223;28;20361;-77
2023/05/03 10:42:06;;;;;;;7.28;3.45;;;538.30;1689.60;;;;;;4990421;28;20057;-78
2023/05/03 10:44:52;;;;;;;5.38;3.55;;;538.00;1689.60;;;;;;4990455;28;20030;-75
2023/05/03 10:47:23;;;;;;;12.65;7.47;;;538.10;1689.60;;;;;;4984835;28;20038;-75
2023/05/03 10:50:27;;;;;;;9.10;4.03;;;538.10;1766.40;;;;;;4985021;28;20138;-75
2023/05/03 10:52:53;;;;;;;5.65;3.28;;;537.90;1792.00;;;;;;4947067;28;20046;-75
2023/05/03 10:55:23;;;;;;;7.43;3.35;;;537.80;1792.00;;;;;;4941862;29;20048;-76
2023/05/03 10:57:49;;;;;;;6.38;3.58;;;;;;;;;;4945218;28;20214;-77
2023/05/03 11:00:32;;;;;;;5.60;3.53;;;512.90;1868.80;;;;;;4938488;29;20051;-75
2023/05/03 11:03:20;;;;;;;8.00;3.40;;;512.70;1817.60;;;;;;4937140;29;20039;-79
2023/05/03 11:05:50;;;;;;;8.18;4.05;;;512.70;1868.80;;;;;;4949358;29;20102;-75
2023/05/03 11:08:18;;;;;;;7.93;3.17;;;512.90;1920.00;;;;;;4929245;29;20142;-77
2023/05/03 11:11:01;;;;;;;7.05;3.50;;;512.60;1868.80;;;;;;4930816;29;20804;-77
2023/05/03 11:13:27;;;;;;;14.38;10.23;;;512.80;1920.00;;;;;;4935187;29;20043;-75
2023/05/03 11:15:54;;;;;;;4.72;3.38;;;512.80;1920.00;;;;;;4948654;29;20046;-85
2023/05/03 11:18:20;;;;;;;4.43;3.25;;;512.90;1843.20;;;;;;4930443;29;20094;-78
2023/05/03 11:20:46;;;;;;;9.23;4.30;;;537.60;1868.80;;;;;;4948777;29;20035;-80
2023/05/03 11:23:12;;;;;;;10.00;4.13;;;537.80;1868.80;;;;;;4961737;28;20042;-81
2023/05/03 11:25:38;;;;;;;14.25;3.40;;;538.00;1843.20;;;;;;4990613;28;20041;-78
2023/05/03 11:28:04;;;;;;;8.73;3.80;;;538.10;1817.60;;;;;;4987854;28;20121;-78
2023/05/03 11:30:33;;;;;;;7.72;3.80;;;538.20;1868.80;;;;;;4972844;28;20110;-77
2023/05/03 11:33:00;;;;;;;9.52;3.80;;;538.40;1766.40;;;;;;4985090;28;20038;-77
2023/05/03 11:35:28;;;;;;;8.95;4.20;;;563.30;1817.60;;;;;;4985291;28;20042;-79
2023/05/03 11:37:55;;;;;;;8.10;4.32;;;538.50;1817.60;;;;;;4973332;28;20076;-79
2023/05/03 11:40:21;;;;;;;7.38;3.75;;;538.30;1843.20;;;;;;4988872;28;20075;-81
2023/05/03 11:43:08;;;;;;;7.80;3.65;;;538.10;1894.40;;;;;;4989365;28;20046;-81
2023/05/03 11:45:42;;;;;;;6.60;3.70;;;538.30;1894.40;;;;;;4980208;28;20058;-80
2023/05/03 11:48:10;;;;;;;8.55;3.90;;;538.20;1817.60;;;;;;4990939;28;20038;-84
2023/05/03 11:51:12;;;;;;;8.88;3.85;;;538.40;1792.00;;;;;;4981449;28;20154;-77
2023/05/03 11:53:39;;;;;;;9.80;3.97;;;538.00;1843.20;;;;;;4912346;29;20044;-85
2023/05/03 11:56:12;;;;;;;9.93;4.40;;;538.30;1817.60;;;;;;4911059;29;20040;-78
2023/05/03 11:58:59;;;;;;;8.75;4.15;;;538.40;1792.00;;;;;;4913967;29;20451;-81
2023/05/03 12:01:27;;;;;;;7.15;3.85;;;538.20;1792.00;;;;;;4928437;29;20060;-77
2023/05/03 12:03:57;;;;;;;10.40;3.72;;;538.40;1817.60;;;;;;4930111;29;20174;-79
2023/05/03 12:06:25;;;;;;;7.13;3.50;;;563.20;1766.40;;;;;;4931394;29;20176;-81
2023/05/03 12:08:51;;;;;;;7.63;3.50;;;563.50;1740.80;;;;;;4928157;29;20203;-79
2023/05/03 12:11:17;;;;;;;9.50;3.45;;;563.40;1792.00;;;;;;4913697;29;20032;-79
2023/05/03 12:13:42;;;;;;;7.88;3.53;;;538.40;1792.00;;;;;;4929488;29;20553;-83
2023/05/03 12:16:10;;;;;;;8.98;3.80;;;538.40;1817.60;;;;;;4929512;29;20043;-79
2023/05/03 12:18:46;;;;;;;6.97;3.75;;;538.30;1817.60;;;;;;4913495;29;20047;-78
2023/05/03 12:21:14;;;;;;;7.70;3.65;;;538.40;1843.20;;;;;;4929249;29;20036;-80
2023/05/03 12:23:40;;;;;;;6.30;3.17;;;538.40;1843.20;;;;;;4913738;29;20062;-83
2023/05/03 12:26:06;;;;;;;9.02;4.07;;;538.50;1843.20;;;;;;4913137;29;20139;-77
2023/05/03 12:28:32;;;;;;;8.57;3.35;;;538.50;1817.60;;;;;;4920698;28;20085;-81
2023/05/03 12:30:58;;;;;;;6.60;3.50;;;563.30;1766.40;;;;;;4992217;28;20085;-82
2023/05/03 12:33:24;;;;;;;8.40;3.45;;;563.20;1715.20;;;;;;4970365;28;20046;-79
2023/05/03 12:35:50;;;;;;;8.75;3.50;;;563.30;1715.20;;;;;;4973046;28;20042;-79
2023/05/03 12:38:16;;;;;;;9.45;3.72;;;563.50;1740.80;;;;;;4973186;28;20041;-83
2023/05/03 12:40:43;;;;;;;8.05;3.75;;;;;;;;;;4976483;28;20070;-77
2023/05/03 12:43:10;;;;;;;15.98;9.38;;;564.00;1689.60;;;;;;4987462;28;20479;-79
2023/05/03 12:45:35;;;;;;;15.15;9.15;;;563.90;1740.80;;;;;;4992247;28;20034;-78
2023/05/03 12:48:02;;;;;;;11.25;4.05;;;563.70;1715.20;;;;;;4992342;28;20581;-83
2023/05/03 12:50:29;;;;;;;7.97;4.32;;;;;;;;;;4988194;28;20038;-78
2023/05/03 12:52:55;;;;;;;9.40;3.92;;;589.10;1638.40;;;;;;4988025;28;20393;-81
2023/05/03 12:55:21;;;;;;;9.80;3.58;;;588.90;1612.80;;;;;;4983131;28;20089;-80
2023/05/03 12:57:46;;;;;;;11.23;4.10;;;589.20;1612.80;;;;;;4963293;28;20042;-83
2023/05/03 13:00:13;;;;;;;9.32;4.32;;;588.90;1689.60;;;;;;4991562;28;20543;-84
2023/05/03 13:02:38;;;;;;;8.95;4.28;;;588.90;1664.00;;;;;;4969644;28;20492;-86
2023/05/03 13:05:06;;;;;;;7.90;3.72;;;588.90;1638.40;;;;;;4971545;28;20049;-82
2023/05/03 13:07:31;;;;;;;9.90;4.00;;;589.00;1612.80;;;;;;4976636;28;20054;-80
2023/05/03 13:09:57;;;;;;;17.90;6.40;;;589.00;1587.20;;;;;;4985931;28;20037;-80
2023/05/03 13:12:24;;;;;;;11.32;6.43;;;589.00;1612.80;;;;;;4992443;28;20030;-83
2023/05/03 13:14:52;;;;;;;7.55;4.18;;;589.20;1587.20;;;;;;4992235;28;20125;-77
2023/05/03 13:17:21;;;;;;;6.95;2.80;;;589.40;1561.60;;;;;;4991999;28;20166;-77
2023/05/03 13:19:48;;;;;;;5.72;3.60;;;589.40;1536.00;;;;;;4973898;28;20125;-83
2023/05/03 13:22:15;;;;;;;7.03;3.10;;;614.40;1510.40;;;;;;4974306;28;20054;-83
2023/05/03 13:24:42;;;;;;;5.40;3.60;;;589.60;1510.40;;;;;;4993792;28;20045;-86
2023/05/03 13:27:10;;;;;;;9.55;3.60;;;614.70;1484.80;;;;;;4993829;28;20042;-80
2023/05/03 13:29:36;;;;;;;6.97;3.30;;;614.60;1484.80;;;;;;4975799;28;20041;-88
2023/05/03 13:32:02;;;;;;;11.05;3.42;;;;;;;;;;4994421;28;20497;-78
2023/05/03 13:34:28;;;;;;;8.07;3.25;;;;;;;;;;4976788;28;20042;-83
2023/05/03 13:36:55;;;;;;;6.78;3.67;;;;;;;;;;4976142;28;20105;-84
2023/05/03 13:39:21;;;;;;;6.50;2.97;;;;;;;;;;4993200;28;20855;-89
2023/05/03 13:41:47;;;;;;;7.57;2.92;;;;;;;;;;4976987;28;20127;-86
2023/05/03 13:44:13;;;;;;;6.35;2.67;;;;;;;;;;4994693;28;20125;-79
2023/05/03 13:46:40;;;;;;;9.23;2.88;;;;;;;;;;4995177;28;20595;-82
2023/05/03 13:49:06;;;;;;;7.50;3.70;;;614.70;1433.60;;;;;;4986415;28;20121;-85
2023/05/03 13:51:36;;;;;;;4.22;3.30;;;614.40;1484.80;;;;;;4988225;28;20468;-86
2023/05/03 13:54:05;;;;;;;8.27;3.58;;;614.70;1510.40;;;;;;4979702;28;20026;-87
2023/05/03 13:56:31;;;;;;;9.23;4.35;;;615.10;1459.20;;;;;;4988887;28;20069;-86
2023/05/03 13:58:58;;;;;;;9.32;4.80;;;;;;;;;;4974935;28;20097;-87
2023/05/03 14:01:24;;;;;;;8.25;4.28;;;;;;;;;;4972078;28;20063;-88
2023/05/03 14:03:51;;;;;;;5.50;3.20;;;;;;;;;;4982867;28;20054;-86
2023/05/03 14:06:17;;;;;;;5.43;2.97;;;640.40;1356.80;;;;;;4989145;28;20062;-86
2023/05/03 14:08:43;;;;;;;7.63;4.22;;;640.30;1305.60;;;;;;4981048;28;20067;-79
2023/05/03 14:11:13;;;;;;;6.60;3.20;;;640.40;1305.60;;;;;;4979791;28;20059;-84
2023/05/03 14:13:39;;;;;;;5.20;2.67;;;640.40;1305.60;;;;;;4976510;28;20502;-83
2023/05/03 14:16:05;;;;;;;5.68;2.72;;;640.20;1305.60;;;;;;4986308;28;20068;-81
2023/05/03 14:18:31;;;;;;;5.78;2.60;;;640.30;1305.60;;;;;;4986296;28;20069;-80
2023/05/03 14:20:58;;;;;;;3.75;2.35;;;640.40;1305.60;;;;;;4980031;28;20066;-80
2023/05/03 14:23:24;;;;;;;4.03;2.10;;;640.50;1280.00;;;;;;4980218;28;20057;-85
2023/05/03 14:25:51;;;;;;;5.22;2.38;;;640.70;1254.40;;;;;;4989474;28;20034;-79
2023/05/03 14:28:17;;;;;;;3.55;2.20;;;640.80;1203.20;;;;;;4980891;28;20069;-80
2023/05/03 14:30:43;;;;;;;6.22;2.40;;;640.90;1203.20;;;;;;4965016;28;20105;-81
2023/05/03 14:33:09;;;;;;;6.40;2.10;;;640.90;1203.20;;;;;;4977496;28;20046;-82
2023/05/03 14:35:35;;;;;;;5.80;2.08;;;665.60;1203.20;;;;;;4978781;28;20041;-82
2023/05/03 14:38:21;;;;;;;6.30;1.88;;;640.50;1280.00;;;;;;4991577;28;20567;-81
2023/05/03 14:40:48;;;;;;;7.43;1.90;;;615.20;1203.20;;;;;;4991801;28;20053;-81
2023/05/03 14:43:14;;;;;;;5.38;1.80;;;615.20;1177.60;;;;;;4973749;28;20048;-84
2023/05/03 14:45:40;;;;;;;4.20;2.05;;;614.90;1203.20;;;;;;4991643;28;20369;-83
2023/05/03 14:48:06;;;;;;;4.93;1.95;;;614.80;1228.80;;;;;;4991268;28;20045;-85
2023/05/03 14:50:32;;;;;;;5.40;1.80;;;614.70;1228.80;;;;;;4973123;28;20049;-77
2023/05/03 14:52:57;;;;;;;3.35;1.90;;;589.60;1228.80;;;;;;4991854;28;20071;-84
2023/05/03 14:55:24;;;;;;;6.05;2.00;;;589.50;1305.60;;;;;;4974529;28;20042;-81
2023/05/03 14:57:49;;;;;;;7.78;2.35;;;614.50;1254.40;;;;;;4992088;28;20480;-82
2023/05/03 15:00:17;;;;;;;8.13;2.30;;;589.00;1280.00;;;;;;4971711;28;20037;-84